Time;durP1;ratioP1;P1;durP2;ratioP2;P2;SDS_P1;SDS_P2;PMS_P1;PMS_P2;Temp;Humidity;BMP_temperature;BMP_pressure;BME280_temperature;BME280_humidity;BME280_pressure;Samples;Min_cycle;Max_cycle;Signal;HPM_P1;HPM_P2
2021/12/02 00:00:36;;;;;;;1.27;0.75;;;6.50;99.90;;;;;;5011841;28;20527;-73
2021/12/02 00:03:04;;;;;;;2.63;0.85;;;6.40;99.90;;;;;;5011460;28;20490;-73
2021/12/02 00:05:30;;;;;;;1.17;0.75;;;6.40;99.90;;;;;;5028339;28;20487;-73
2021/12/02 00:07:56;;;;;;;1.20;1.08;;;6.30;99.90;;;;;;5017211;28;20041;-73
2021/12/02 00:10:27;;;;;;;2.55;0.85;;;6.20;99.90;;;;;;5029213;28;20820;-73
2021/12/02 00:12:54;;;;;;;2.28;1.23;;;6.20;99.90;;;;;;5023987;28;20025;-73
2021/12/02 00:15:23;;;;;;;3.75;2.20;;;6.10;99.90;;;;;;5029138;28;20032;-73
2021/12/02 00:17:57;;;;;;;3.63;1.70;;;6.00;99.90;;;;;;5028393;28;20084;-73
2021/12/02 00:23:42;;;;;;;4.18;1.40;;;5.80;99.90;;;;;;5029180;28;20104;-73
2021/12/02 00:26:13;;;;;;;2.90;1.35;;;5.70;99.90;;;;;;5028838;28;20033;-73
2021/12/02 00:28:39;;;;;;;1.50;1.05;;;5.70;99.90;;;;;;5025591;28;20037;-73
2021/12/02 00:31:05;;;;;;;2.53;1.10;;;5.70;99.90;;;;;;5018145;28;20076;-73
2021/12/02 00:33:33;;;;;;;3.28;1.00;;;5.70;99.90;;;;;;5023320;28;20048;-73
2021/12/02 00:35:59;;;;;;;2.20;1.00;;;5.80;99.90;;;;;;5028527;28;20033;-73
2021/12/02 00:38:26;;;;;;;1.80;1.10;;;5.70;99.90;;;;;;5028613;28;20029;-74
2021/12/02 00:40:52;;;;;;;1.60;0.75;;;5.60;99.90;;;;;;5011329;28;20575;-73
2021/12/02 00:43:19;;;;;;;1.35;0.93;;;5.60;99.90;;;;;;5028790;28;20087;-73
2021/12/02 00:45:45;;;;;;;2.13;0.80;;;5.50;99.90;;;;;;5028201;28;20036;-73
2021/12/02 00:48:13;;;;;;;1.30;0.98;;;5.60;99.90;;;;;;5028517;28;20040;-73
2021/12/02 00:50:44;;;;;;;1.63;0.93;;;5.50;99.90;;;;;;5028391;28;20033;-73
2021/12/02 00:53:10;;;;;;;1.60;0.80;;;5.50;99.90;;;;;;5009049;28;26464;-73
2021/12/02 00:55:38;;;;;;;0.93;0.70;;;5.40;99.90;;;;;;5027823;28;20264;-73
2021/12/02 00:58:04;;;;;;;1.30;0.82;;;5.50;99.90;;;;;;5010394;28;20113;-73
2021/12/02 01:00:30;;;;;;;1.42;0.90;;;5.40;99.90;;;;;;5003673;28;20442;-73
2021/12/02 01:03:01;;;;;;;0.90;0.90;;;5.40;99.90;;;;;;5017697;28;20156;-73
2021/12/02 01:05:28;;;;;;;1.95;0.95;;;5.40;99.90;;;;;;5026093;28;20072;-73
2021/12/02 01:07:54;;;;;;;0.75;0.73;;;5.40;99.90;;;;;;5010545;28;20040;-73
2021/12/02 01:10:20;;;;;;;1.15;0.98;;;5.30;99.90;;;;;;5027657;28;20517;-73
2021/12/02 01:12:47;;;;;;;1.52;0.70;;;5.20;99.90;;;;;;5010756;28;20117;-73
2021/12/02 01:15:13;;;;;;;0.60;0.43;;;5.20;99.90;;;;;;5027946;28;20558;-73
2021/12/02 01:17:40;;;;;;;1.20;0.63;;;5.20;99.90;;;;;;5027582;28;20195;-72
2021/12/02 01:20:06;;;;;;;0.98;0.88;;;5.40;99.90;;;;;;5028289;28;20033;-73
2021/12/02 01:22:37;;;;;;;2.67;0.70;;;5.40;99.90;;;;;;5024674;28;20049;-73
2021/12/02 01:25:05;;;;;;;1.45;0.60;;;5.40;99.90;;;;;;5027511;28;20040;-73
2021/12/02 01:27:33;;;;;;;1.40;1.08;;;5.40;99.90;;;;;;5010020;28;20530;-73
2021/12/02 01:29:59;;;;;;;1.95;1.38;;;5.50;99.90;;;;;;5027212;28;20541;-73
2021/12/02 01:32:25;;;;;;;2.97;1.25;;;5.60;99.90;;;;;;5027902;28;20021;-73
2021/12/02 01:34:56;;;;;;;4.55;1.77;;;5.70;99.90;;;;;;5010356;28;20029;-73
2021/12/02 01:37:22;;;;;;;2.40;0.98;;;5.70;99.90;;;;;;5028083;28;20534;-73
2021/12/02 01:39:49;;;;;;;2.20;1.85;;;5.80;99.90;;;;;;5027748;28;20072;-73
2021/12/02 01:42:26;;;;;;;4.50;1.50;;;5.90;99.90;;;;;;5027783;28;20047;-73
2021/12/02 01:44:57;;;;;;;3.45;1.60;;;6.00;99.90;;;;;;5027725;28;20058;-73
2021/12/02 01:47:29;;;;;;;3.72;1.52;;;6.10;99.90;;;;;;5026444;28;20029;-73
2021/12/02 01:49:59;;;;;;;2.45;1.30;;;6.10;99.90;;;;;;5025736;28;20030;-73
2021/12/02 01:52:31;;;;;;;3.75;1.73;;;6.10;99.90;;;;;;5029000;28;20026;-73
2021/12/02 01:55:09;;;;;;;3.50;1.38;;;6.20;99.90;;;;;;5028554;28;20021;-73
2021/12/02 01:57:40;;;;;;;5.55;1.70;;;6.10;99.90;;;;;;5010308;28;20033;-73
2021/12/02 02:00:15;;;;;;;3.03;1.35;;;6.10;99.90;;;;;;5028639;28;20025;-73
2021/12/02 02:02:42;;;;;;;3.35;1.38;;;6.10;99.90;;;;;;5028277;28;20041;-73
2021/12/02 02:05:12;;;;;;;5.28;1.90;;;6.10;99.90;;;;;;5028412;28;20033;-73
2021/12/02 02:07:53;;;;;;;1.97;1.23;;;6.10;99.90;;;;;;5028999;28;20030;-73
2021/12/02 02:10:19;;;;;;;2.25;1.38;;;6.10;99.90;;;;;;5032309;28;20033;-73
2021/12/02 02:12:45;;;;;;;2.75;1.00;;;6.10;99.90;;;;;;5031877;28;20448;-73
2021/12/02 02:15:11;;;;;;;2.28;1.38;;;6.10;99.90;;;;;;5032006;28;20033;-73
2021/12/02 02:17:47;;;;;;;2.60;1.10;;;6.00;99.90;;;;;;5029844;28;20494;-73
2021/12/02 02:20:14;;;;;;;2.28;1.10;;;6.00;99.90;;;;;;5032162;28;20553;-73
2021/12/02 02:22:40;;;;;;;3.25;0.98;;;6.00;99.90;;;;;;5032995;28;20053;-73
2021/12/02 02:25:13;;;;;;;3.28;1.50;;;6.00;99.90;;;;;;5031756;28;20463;-73
2021/12/02 02:27:39;;;;;;;4.97;1.65;;;6.00;99.90;;;;;;5031165;28;20037;-73
2021/12/02 02:30:08;;;;;;;3.63;0.90;;;6.10;99.90;;;;;;5031313;28;20467;-73
2021/12/02 02:32:34;;;;;;;2.08;0.88;;;6.10;99.90;;;;;;5031662;28;20490;-74
2021/12/02 02:35:00;;;;;;;3.47;0.80;;;6.10;99.90;;;;;;5031665;28;20036;-73
2021/12/02 02:37:31;;;;;;;2.85;0.90;;;6.10;99.90;;;;;;5032253;28;20045;-73
2021/12/02 02:39:56;;;;;;;2.25;0.65;;;6.10;99.90;;;;;;5031773;28;20029;-73
2021/12/02 02:42:24;;;;;;;3.38;0.75;;;6.10;99.90;;;;;;5013623;28;20079;-73
2021/12/02 02:44:51;;;;;;;3.60;1.10;;;6.10;99.90;;;;;;5027628;28;20014;-73
2021/12/02 02:47:16;;;;;;;4.00;0.90;;;6.10;99.90;;;;;;5031216;28;20033;-73
2021/12/02 02:49:42;;;;;;;1.98;0.60;;;6.10;99.90;;;;;;5032410;28;20049;-73
2021/12/02 02:52:08;;;;;;;1.30;0.90;;;6.10;99.90;;;;;;5030831;28;20395;-74
2021/12/02 02:54:34;;;;;;;5.30;1.02;;;6.20;99.90;;;;;;5031081;28;20036;-73
2021/12/02 02:57:03;;;;;;;1.33;0.80;;;6.20;99.90;;;;;;5030878;28;20029;-73
2021/12/02 03:00:10;;;;;;;3.10;0.80;;;6.20;99.90;;;;;;5031128;28;20018;-73
2021/12/02 03:07:39;;;;;;;5.00;1.10;;;6.20;99.90;;;;;;5031985;28;20022;-73
2021/12/02 03:10:32;;;;;;;2.72;0.90;;;6.10;99.90;;;;;;5030844;28;20033;-74
2021/12/02 03:13:10;;;;;;;2.83;1.00;;;6.10;99.90;;;;;;5012733;28;20558;-74
2021/12/02 03:18:22;;;;;;;2.38;0.80;;;6.00;99.90;;;;;;5029854;28;20120;-73
2021/12/02 03:20:48;;;;;;;2.00;0.80;;;6.00;99.90;;;;;;5025270;28;20470;-73
2021/12/02 03:23:13;;;;;;;2.15;0.80;;;6.00;99.90;;;;;;5029492;28;20044;-73
2021/12/02 03:25:39;;;;;;;2.08;0.60;;;6.00;99.90;;;;;;5027802;28;20101;-74
2021/12/02 03:28:05;;;;;;;2.28;0.60;;;5.90;99.90;;;;;;5024974;28;20068;-74
2021/12/02 03:30:31;;;;;;;1.75;0.70;;;5.90;99.90;;;;;;5025170;28;20064;-74
2021/12/02 03:32:57;;;;;;;2.13;0.85;;;5.90;99.90;;;;;;5027619;28;20052;-74
2021/12/02 03:35:23;;;;;;;3.65;0.80;;;5.90;99.90;;;;;;5028196;28;20474;-73
2021/12/02 03:37:49;;;;;;;1.25;0.73;;;5.90;99.90;;;;;;5030900;28;20025;-73
2021/12/02 03:40:15;;;;;;;0.82;0.50;;;5.90;99.90;;;;;;5025704;28;20052;-73
2021/12/02 03:42:46;;;;;;;2.13;0.60;;;5.90;99.90;;;;;;5030169;28;20045;-73
2021/12/02 03:45:12;;;;;;;0.82;0.40;;;5.90;99.90;;;;;;5026143;28;20025;-74
2021/12/02 03:47:38;;;;;;;2.67;1.02;;;5.90;99.90;;;;;;5030126;28;20041;-73
2021/12/02 03:50:04;;;;;;;2.28;0.65;;;5.90;99.90;;;;;;5029839;28;20410;-74
2021/12/02 03:52:30;;;;;;;1.00;0.77;;;5.90;99.90;;;;;;5013597;28;20021;-73
2021/12/02 03:54:55;;;;;;;1.55;0.57;;;5.90;99.90;;;;;;5012214;28;20092;-73
2021/12/02 03:57:21;;;;;;;1.30;0.68;;;5.90;99.90;;;;;;5029766;28;20032;-74
2021/12/02 03:59:47;;;;;;;0.40;0.38;;;5.80;99.90;;;;;;5011877;28;20450;-74
2021/12/02 04:02:12;;;;;;;0.63;0.45;;;5.80;99.90;;;;;;5030150;28;20028;-73
2021/12/02 04:04:38;;;;;;;0.82;0.43;;;5.80;99.90;;;;;;5013304;28;20409;-74
2021/12/02 04:07:04;;;;;;;0.50;0.50;;;5.70;99.90;;;;;;5029589;28;20025;-73
2021/12/02 04:09:37;;;;;;;1.17;0.40;;;5.70;99.90;;;;;;5029856;28;20052;-73
2021/12/02 04:12:15;;;;;;;0.80;0.50;;;5.70;99.90;;;;;;5029808;28;20022;-73
2021/12/02 04:14:49;;;;;;;1.10;0.45;;;5.70;99.90;;;;;;5029682;28;20026;-73
2021/12/02 04:17:14;;;;;;;1.83;0.65;;;5.60;99.90;;;;;;5029640;28;20040;-73
2021/12/02 04:19:40;;;;;;;1.55;0.55;;;5.60;99.90;;;;;;5030836;28;20119;-73
2021/12/02 04:22:06;;;;;;;0.40;0.40;;;5.70;99.90;;;;;;5030044;28;20034;-73
2021/12/02 04:24:32;;;;;;;0.80;0.28;;;5.70;99.90;;;;;;5029079;28;20479;-73
2021/12/02 04:26:58;;;;;;;2.88;0.50;;;5.70;99.90;;;;;;5027963;28;20061;-73
2021/12/02 04:29:24;;;;;;;0.50;0.40;;;5.70;99.90;;;;;;5011859;28;20048;-73
2021/12/02 04:31:51;;;;;;;0.70;0.40;;;5.70;99.90;;;;;;5030034;28;20407;-73
2021/12/02 04:34:17;;;;;;;2.33;0.47;;;5.70;99.90;;;;;;5029728;28;20029;-73
2021/12/02 04:36:43;;;;;;;2.20;0.50;;;5.70;99.90;;;;;;5029288;28;20025;-73
2021/12/02 04:39:10;;;;;;;2.10;1.00;;;5.70;99.90;;;;;;5027672;28;20415;-74
2021/12/02 04:41:36;;;;;;;4.28;1.50;;;5.70;99.90;;;;;;5029568;28;20029;-73
2021/12/02 04:44:02;;;;;;;3.85;1.70;;;5.80;99.90;;;;;;5028532;28;20061;-73
2021/12/02 04:46:28;;;;;;;3.80;2.15;;;5.70;99.90;;;;;;5028579;28;20032;-73
2021/12/02 04:48:54;;;;;;;6.35;2.33;;;5.80;99.90;;;;;;5028789;28;20395;-73
2021/12/02 04:51:20;;;;;;;6.60;2.75;;;5.80;99.90;;;;;;5029186;28;20388;-73
2021/12/02 04:53:45;;;;;;;6.88;2.67;;;5.80;99.90;;;;;;5028818;28;20021;-73
2021/12/02 04:56:11;;;;;;;4.25;2.22;;;5.70;99.90;;;;;;5029057;28;20022;-73
2021/12/02 04:58:37;;;;;;;3.75;2.13;;;5.80;99.90;;;;;;5030195;28;20450;-73
2021/12/02 05:01:03;;;;;;;2.60;1.30;;;5.70;99.90;;;;;;5026811;28;20025;-73
2021/12/02 05:03:28;;;;;;;3.85;1.27;;;5.80;99.90;;;;;;5029112;28;20101;-73
2021/12/02 05:05:54;;;;;;;2.50;0.93;;;5.80;99.90;;;;;;5029074;28;20402;-73
2021/12/02 05:08:20;;;;;;;1.13;0.85;;;5.80;99.90;;;;;;5028145;28;20435;-74
2021/12/02 05:10:45;;;;;;;0.98;0.88;;;5.70;99.90;;;;;;5030326;28;20096;-73
2021/12/02 05:13:11;;;;;;;1.67;0.70;;;5.80;99.90;;;;;;5026280;28;20025;-73
2021/12/02 05:15:37;;;;;;;0.43;0.43;;;5.80;99.90;;;;;;5028965;28;20017;-73
2021/12/02 05:18:02;;;;;;;1.08;0.60;;;5.70;99.90;;;;;;5027113;28;20442;-73
2021/12/02 05:20:28;;;;;;;1.58;0.63;;;5.80;99.90;;;;;;5028548;28;20042;-74
2021/12/02 05:22:54;;;;;;;0.88;0.52;;;5.80;99.90;;;;;;5028948;28;20407;-73
2021/12/02 05:25:20;;;;;;;2.17;0.65;;;5.80;99.90;;;;;;5028829;28;20021;-73
2021/12/02 05:27:45;;;;;;;1.85;0.73;;;5.80;99.90;;;;;;5028283;28;20403;-73
2021/12/02 05:30:11;;;;;;;0.80;0.75;;;5.80;99.90;;;;;;5028732;28;20065;-73
2021/12/02 05:32:37;;;;;;;1.17;0.50;;;5.80;99.90;;;;;;5027815;28;20041;-73
2021/12/02 05:35:04;;;;;;;0.75;0.75;;;5.90;99.90;;;;;;5028542;28;20037;-73
2021/12/02 05:37:30;;;;;;;1.92;0.70;;;5.80;99.90;;;;;;5030056;28;20033;-73
2021/12/02 05:39:55;;;;;;;1.08;0.88;;;5.90;99.90;;;;;;5028431;28;20138;-73
2021/12/02 05:42:21;;;;;;;1.65;0.80;;;5.90;99.90;;;;;;5031890;28;20492;-73
2021/12/02 05:44:47;;;;;;;1.08;0.93;;;5.80;99.90;;;;;;5033068;28;20025;-73
2021/12/02 05:47:13;;;;;;;1.83;0.55;;;5.80;99.90;;;;;;5032678;28;20025;-73
2021/12/02 05:49:39;;;;;;;0.60;0.60;;;5.80;99.90;;;;;;5019084;28;20026;-73
2021/12/02 05:52:05;;;;;;;1.15;0.65;;;5.90;99.90;;;;;;5031987;28;20033;-73
2021/12/02 05:54:31;;;;;;;3.20;0.70;;;5.90;99.90;;;;;;5030734;28;20029;-74
2021/12/02 05:56:56;;;;;;;2.47;1.00;;;5.90;99.90;;;;;;5031593;28;20072;-73
2021/12/02 05:59:22;;;;;;;1.98;0.90;;;5.90;99.90;;;;;;5013375;28;20458;-73
2021/12/02 06:01:49;;;;;;;1.27;0.70;;;5.80;99.90;;;;;;5033427;28;20423;-73
2021/12/02 06:04:15;;;;;;;0.77;0.50;;;5.90;99.90;;;;;;5030880;28;20030;-73
2021/12/02 06:06:41;;;;;;;2.35;0.80;;;5.80;99.90;;;;;;5012907;28;20550;-73
2021/12/02 06:09:07;;;;;;;1.30;0.60;;;5.80;99.90;;;;;;5012205;28;20044;-73
2021/12/02 06:11:33;;;;;;;1.65;0.80;;;5.80;99.90;;;;;;5029697;28;20427;-73
2021/12/02 06:13:59;;;;;;;4.25;0.60;;;5.80;99.90;;;;;;5031637;28;20822;-73
2021/12/02 06:16:24;;;;;;;1.52;0.50;;;5.90;99.90;;;;;;5028444;28;20017;-73
2021/12/02 06:18:50;;;;;;;3.05;0.75;;;5.90;99.90;;;;;;5028813;28;20040;-73
2021/12/02 06:21:16;;;;;;;1.55;0.70;;;5.90;99.90;;;;;;5030723;28;20112;-73
2021/12/02 06:23:42;;;;;;;2.72;0.90;;;5.80;99.90;;;;;;5029447;28;20060;-73
2021/12/02 06:26:08;;;;;;;1.60;1.20;;;5.90;99.90;;;;;;5030680;28;20025;-73
2021/12/02 06:28:35;;;;;;;1.83;0.60;;;5.90;99.90;;;;;;5015133;28;20032;-73
2021/12/02 06:31:06;;;;;;;1.23;1.05;;;5.80;99.90;;;;;;5031495;28;20057;-73
2021/12/02 06:33:32;;;;;;;5.40;1.10;;;5.80;99.90;;;;;;5012641;28;20091;-73
2021/12/02 06:35:58;;;;;;;1.55;0.98;;;5.80;99.90;;;;;;5029067;28;20071;-73
2021/12/02 06:38:23;;;;;;;2.50;1.15;;;5.90;99.90;;;;;;5030763;28;20410;-73
2021/12/02 06:40:50;;;;;;;3.42;1.00;;;5.90;99.90;;;;;;5028564;28;20028;-73
2021/12/02 06:43:16;;;;;;;2.35;0.80;;;5.90;99.90;;;;;;5027700;28;20053;-74
2021/12/02 06:45:43;;;;;;;1.77;0.98;;;5.80;99.90;;;;;;5031174;28;20048;-73
2021/12/02 06:48:09;;;;;;;2.42;0.80;;;5.90;99.90;;;;;;5026756;28;20030;-73
2021/12/02 06:50:36;;;;;;;2.88;0.70;;;5.80;99.90;;;;;;5031417;28;20072;-74
2021/12/02 06:53:03;;;;;;;1.70;0.60;;;5.80;99.90;;;;;;5012775;28;20065;-73
2021/12/02 06:55:30;;;;;;;3.10;0.93;;;5.80;99.90;;;;;;5032341;28;20022;-74
2021/12/02 06:57:56;;;;;;;4.10;0.85;;;5.90;99.90;;;;;;5030159;28;20037;-73
2021/12/02 07:00:23;;;;;;;3.35;0.77;;;5.80;99.90;;;;;;5013293;28;20025;-74
2021/12/02 07:02:49;;;;;;;1.48;0.60;;;5.80;99.90;;;;;;5029152;28;20117;-74
2021/12/02 07:05:16;;;;;;;2.97;0.63;;;5.90;99.90;;;;;;5015166;28;20032;-74
2021/12/02 07:07:43;;;;;;;3.20;1.40;;;5.90;99.90;;;;;;5032280;28;20029;-74
2021/12/02 07:10:19;;;;;;;3.15;0.90;;;5.90;99.90;;;;;;5028385;28;20032;-74
2021/12/02 07:12:47;;;;;;;3.10;1.10;;;5.90;99.90;;;;;;5028141;28;20053;-73
2021/12/02 07:18:15;;;;;;;1.55;0.85;;;5.90;99.90;;;;;;5008224;28;20119;-73
2021/12/02 07:20:43;;;;;;;4.47;1.35;;;5.90;99.90;;;;;;5008825;28;20096;-73
2021/12/02 07:23:09;;;;;;;6.53;2.17;;;5.90;99.90;;;;;;5002066;28;20174;-73
2021/12/02 07:25:35;;;;;;;4.05;1.60;;;5.90;99.90;;;;;;4992492;28;20511;-73
2021/12/02 07:28:02;;;;;;;5.60;1.40;;;6.00;99.90;;;;;;5008092;28;20096;-73
2021/12/02 07:30:28;;;;;;;2.15;1.40;;;5.90;99.90;;;;;;5007832;28;20034;-73
2021/12/02 07:32:56;;;;;;;5.78;1.00;;;6.00;99.90;;;;;;5011926;28;20030;-73
2021/12/02 07:35:22;;;;;;;3.30;1.58;;;6.00;99.90;;;;;;5008225;28;20034;-73
2021/12/02 07:37:50;;;;;;;4.13;1.27;;;6.00;99.90;;;;;;4993216;28;20029;-74
2021/12/02 07:40:18;;;;;;;3.25;1.75;;;6.00;99.90;;;;;;5009441;28;20042;-73
2021/12/02 07:42:45;;;;;;;4.97;1.35;;;6.00;99.90;;;;;;4987961;28;20054;-73
2021/12/02 07:45:11;;;;;;;13.25;2.75;;;6.00;99.90;;;;;;5008144;28;20549;-73
2021/12/02 07:47:39;;;;;;;2.92;1.23;;;6.00;99.90;;;;;;5007979;28;20038;-73
2021/12/02 07:50:07;;;;;;;3.75;1.88;;;6.00;99.90;;;;;;5008246;28;20121;-73
2021/12/02 07:52:34;;;;;;;6.28;1.85;;;6.00;99.90;;;;;;5009316;28;20018;-73
2021/12/02 07:55:06;;;;;;;6.05;1.38;;;6.10;99.90;;;;;;5030114;28;20025;-73
2021/12/02 07:57:34;;;;;;;4.20;1.65;;;6.10;99.90;;;;;;5024112;28;20018;-73
2021/12/02 08:00:00;;;;;;;6.55;1.98;;;6.10;99.90;;;;;;5019905;28;20029;-73
2021/12/02 08:02:31;;;;;;;7.18;2.10;;;6.10;99.90;;;;;;5028840;28;20025;-73
2021/12/02 08:04:56;;;;;;;7.32;2.20;;;6.10;99.90;;;;;;5012272;28;20052;-73
2021/12/02 08:07:22;;;;;;;8.38;3.67;;;6.10;99.90;;;;;;5030871;28;20255;-73
2021/12/02 08:09:47;;;;;;;10.20;4.35;;;6.20;99.90;;;;;;5029738;28;20304;-73
2021/12/02 08:12:13;;;;;;;9.95;4.38;;;6.20;99.90;;;;;;5029559;28;20540;-74
2021/12/02 08:14:39;;;;;;;12.52;4.18;;;6.20;99.90;;;;;;5030011;28;20030;-75
2021/12/02 08:17:04;;;;;;;8.30;4.30;;;6.20;99.90;;;;;;5029236;28;20021;-75
2021/12/02 08:19:31;;;;;;;10.02;6.15;;;6.30;99.90;;;;;;5029313;28;20108;-75
2021/12/02 08:21:56;;;;;;;19.65;9.77;;;6.30;99.90;;;;;;5029419;28;20562;-75
2021/12/02 08:24:23;;;;;;;19.55;8.07;;;6.30;99.90;;;;;;5029088;28;20045;-75
2021/12/02 08:26:50;;;;;;;18.05;8.02;;;6.40;99.90;;;;;;5029258;28;20026;-75
2021/12/02 08:29:16;;;;;;;16.98;6.47;;;6.30;99.90;;;;;;5029460;28;20048;-75
2021/12/02 08:31:42;;;;;;;10.00;4.93;;;6.30;99.90;;;;;;5030502;28;20049;-76
2021/12/02 08:34:07;;;;;;;9.00;5.05;;;6.40;99.90;;;;;;5029073;28;20029;-75
2021/12/02 08:36:46;;;;;;;11.50;5.72;;;6.40;99.90;;;;;;5011492;28;20407;-75
2021/12/02 08:39:17;;;;;;;6.05;3.38;;;6.40;99.90;;;;;;5010858;28;20533;-75
2021/12/02 08:41:46;;;;;;;6.63;3.10;;;6.40;99.90;;;;;;5010763;28;20029;-75
2021/12/02 08:44:13;;;;;;;11.15;4.55;;;6.40;99.90;;;;;;5027999;28;20518;-76
2021/12/02 08:46:39;;;;;;;5.82;3.75;;;6.40;99.90;;;;;;5029630;28;20029;-75
2021/12/02 08:49:05;;;;;;;7.75;3.45;;;6.40;99.90;;;;;;5010259;28;20510;-75
2021/12/02 08:51:30;;;;;;;8.27;3.08;;;6.40;99.90;;;;;;5028297;28;20029;-75
2021/12/02 08:53:56;;;;;;;11.13;2.55;;;6.40;99.90;;;;;;5010062;28;20399;-75
2021/12/02 08:56:22;;;;;;;5.85;1.88;;;6.40;99.90;;;;;;5021552;28;20512;-75
2021/12/02 08:58:47;;;;;;;5.72;2.20;;;6.40;99.90;;;;;;5029612;28;20446;-75
2021/12/02 09:01:13;;;;;;;7.43;2.42;;;6.40;99.90;;;;;;5026956;28;20039;-75
2021/12/02 09:03:40;;;;;;;4.50;2.55;;;6.40;99.90;;;;;;5027323;28;20543;-75
2021/12/02 09:06:09;;;;;;;6.75;3.70;;;6.40;99.90;;;;;;5028142;28;20033;-75
2021/12/02 09:08:35;;;;;;;7.30;3.17;;;6.40;99.90;;;;;;5007837;28;20112;-75
2021/12/02 09:11:03;;;;;;;10.65;3.45;;;6.40;99.90;;;;;;5026946;28;20048;-75
2021/12/02 09:13:29;;;;;;;10.48;3.17;;;6.40;99.90;;;;;;5029163;28;20021;-75
2021/12/02 09:15:55;;;;;;;5.50;2.45;;;6.40;99.90;;;;;;5026353;28;20025;-74
2021/12/02 09:18:21;;;;;;;11.40;2.60;;;6.30;99.90;;;;;;5026536;28;20453;-75
2021/12/02 09:20:47;;;;;;;8.13;2.72;;;6.40;99.90;;;;;;5009625;28;20128;-75
2021/12/02 09:23:13;;;;;;;9.02;2.75;;;6.30;99.90;;;;;;5027016;28;20029;-75
2021/12/02 09:25:40;;;;;;;8.77;3.22;;;6.30;99.90;;;;;;5028651;28;20025;-75
2021/12/02 09:28:06;;;;;;;7.72;2.65;;;6.30;99.90;;;;;;5026218;28;20025;-75
2021/12/02 09:30:31;;;;;;;7.28;2.20;;;6.30;99.90;;;;;;5008874;28;20029;-75
2021/12/02 09:32:57;;;;;;;10.25;2.65;;;6.40;99.90;;;;;;5009425;28;20389;-74
2021/12/02 09:35:24;;;;;;;7.10;2.50;;;6.80;99.90;;;;;;5009765;28;20037;-74
2021/12/02 09:37:50;;;;;;;12.90;3.15;;;7.00;99.90;;;;;;5028439;28;20021;-75
2021/12/02 09:40:17;;;;;;;7.32;2.55;;;7.10;99.90;;;;;;5027304;28;20271;-75
2021/12/02 09:42:44;;;;;;;9.45;2.78;;;7.00;99.90;;;;;;5009649;28;20025;-74
2021/12/02 09:45:11;;;;;;;9.32;4.07;;;7.10;99.90;;;;;;5026612;28;20026;-74
2021/12/02 09:47:41;;;;;;;9.60;3.53;;;7.20;99.90;;;;;;5026301;28;20022;-74
2021/12/02 09:50:13;;;;;;;12.02;3.03;;;7.50;99.90;;;;;;5027673;28;20014;-74
2021/12/02 09:52:41;;;;;;;10.48;2.65;;;7.60;99.90;;;;;;5011158;28;20238;-74
2021/12/02 09:56:07;;;;;;;10.85;3.40;;;7.40;99.90;;;;;;5009778;28;20052;-75
2021/12/02 09:57:57;;;;;;;8.30;3.10;;;7.60;99.90;;;;;;5017752;28;20040;-75
2021/12/02 10:00:36;;;;;;;12.48;3.33;;;7.60;99.90;;;;;;5027090;28;20076;-74
2021/12/02 10:03:06;;;;;;;6.25;2.72;;;7.70;99.90;;;;;;5026053;28;20052;-74
2021/12/02 10:05:44;;;;;;;12.90;2.63;;;8.00;99.90;;;;;;5025119;28;20030;-75
2021/12/02 10:08:19;;;;;;;8.13;2.50;;;7.90;99.90;;;;;;5026434;28;20033;-74
2021/12/02 10:10:56;;;;;;;13.13;3.50;;;8.00;99.90;;;;;;5028206;28;20029;-74
2021/12/02 10:13:30;;;;;;;11.07;3.28;;;8.10;99.90;;;;;;5025571;28;20025;-74
2021/12/02 10:16:32;;;;;;;11.07;2.88;;;8.30;99.90;;;;;;5024538;28;20105;-74
2021/12/02 10:21:41;;;;;;;12.68;2.35;;;7.80;99.90;;;;;;5026645;28;20575;-75
2021/12/02 10:24:20;;;;;;;15.32;3.13;;;7.60;99.90;;;;;;5024347;28;20099;-74
2021/12/02 10:26:51;;;;;;;11.65;2.15;;;7.20;99.90;;;;;;5028303;28;20029;-75
2021/12/02 10:29:19;;;;;;;10.02;2.30;;;6.90;99.90;;;;;;5028639;28;20048;-73
2021/12/02 10:31:47;;;;;;;8.88;2.42;;;6.80;99.90;;;;;;5031616;28;20030;-74
2021/12/02 10:34:16;;;;;;;7.68;2.10;;;6.90;99.90;;;;;;5012480;28;20064;-74
2021/12/02 10:36:45;;;;;;;8.70;2.15;;;7.10;99.90;;;;;;5011566;28;20022;-74
2021/12/02 10:39:25;;;;;;;5.65;1.80;;;7.30;99.90;;;;;;5030624;28;20029;-74
2021/12/02 10:42:00;;;;;;;8.60;2.22;;;7.30;99.90;;;;;;5028184;28;20022;-74
2021/12/02 10:44:31;;;;;;;6.63;3.08;;;7.30;99.90;;;;;;5012228;28;20085;-74
2021/12/02 10:47:11;;;;;;;8.15;2.80;;;7.30;99.90;;;;;;5031011;28;20032;-74
2021/12/02 10:49:39;;;;;;;11.88;2.67;;;7.60;99.90;;;;;;5031139;28;20079;-74
2021/12/02 10:52:06;;;;;;;10.75;2.22;;;7.80;99.90;;;;;;5011877;28;20025;-74
2021/12/02 10:54:35;;;;;;;16.45;3.90;;;7.80;99.90;;;;;;5027970;28;20030;-74
2021/12/02 10:57:09;;;;;;;8.05;2.17;;;7.90;99.90;;;;;;5030378;28;20021;-74
2021/12/02 10:59:34;;;;;;;6.20;2.13;;;8.00;99.90;;;;;;5030659;28;20040;-74
2021/12/02 11:02:17;;;;;;;11.02;2.05;;;8.20;99.90;;;;;;5013312;28;20567;-74
2021/12/02 11:04:49;;;;;;;7.63;2.50;;;8.50;99.90;;;;;;5032133;28;20029;-74
2021/12/02 11:07:40;;;;;;;7.07;1.80;;;8.80;99.90;;;;;;5031539;28;20038;-74
2021/12/02 11:10:11;;;;;;;7.07;2.67;;;8.60;99.90;;;;;;5012449;28;20053;-74
2021/12/02 11:12:40;;;;;;;8.35;1.80;;;8.10;99.90;;;;;;5030664;28;20022;-74
2021/12/02 11:15:24;;;;;;;9.75;2.33;;;7.80;99.90;;;;;;5013084;28;20037;-74
2021/12/02 11:17:53;;;;;;;10.00;2.08;;;7.70;99.90;;;;;;5027222;28;20495;-74
2021/12/02 11:20:41;;;;;;;7.65;2.42;;;7.60;99.90;;;;;;5015111;28;20026;-74
2021/12/02 11:23:15;;;;;;;6.40;2.03;;;7.60;99.90;;;;;;5030164;28;20025;-74
2021/12/02 11:25:58;;;;;;;4.22;1.73;;;7.60;99.90;;;;;;5032371;28;20032;-74
2021/12/02 11:28:30;;;;;;;5.75;1.77;;;7.70;99.90;;;;;;5046548;28;20029;-74
2021/12/02 11:30:58;;;;;;;13.27;4.07;;;8.20;99.90;;;;;;5013133;28;20033;-74
2021/12/02 11:33:31;;;;;;;5.75;2.05;;;8.50;99.90;;;;;;5030231;28;20018;-74
2021/12/02 11:35:56;;;;;;;7.72;2.20;;;8.90;99.90;;;;;;5029782;28;20052;-74
2021/12/02 11:38:27;;;;;;;9.07;1.98;;;9.20;99.90;;;;;;5029459;28;20021;-74
2021/12/02 11:40:57;;;;;;;15.18;2.33;;;8.70;99.90;;;;;;5031058;28;20032;-74
2021/12/02 11:43:28;;;;;;;11.93;2.50;;;8.20;99.90;;;;;;5028473;28;20119;-74
2021/12/02 11:45:55;;;;;;;5.65;2.70;;;8.00;99.90;;;;;;5030113;28;20091;-74
2021/12/02 11:48:23;;;;;;;9.18;2.25;;;8.00;99.90;;;;;;5029102;28;20134;-74
2021/12/02 11:50:53;;;;;;;10.05;1.95;;;8.00;99.90;;;;;;5029308;28;20116;-74
2021/12/02 11:53:21;;;;;;;9.05;2.88;;;7.90;99.90;;;;;;5028360;28;20022;-74
2021/12/02 11:55:59;;;;;;;6.53;1.75;;;8.20;99.90;;;;;;5031086;28;20014;-74
2021/12/02 11:58:26;;;;;;;5.55;1.88;;;8.30;99.90;;;;;;5012546;28;20053;-74
2021/12/02 12:00:53;;;;;;;5.78;1.92;;;8.70;99.90;;;;;;5028573;28;20033;-74
2021/12/02 12:03:28;;;;;;;7.28;1.80;;;8.90;99.90;;;;;;5010460;28;20061;-74
2021/12/02 12:06:03;;;;;;;5.03;2.53;;;9.00;99.90;;;;;;5028460;28;20025;-74
2021/12/02 12:08:57;;;;;;;9.18;1.83;;;8.80;99.90;;;;;;5028613;28;20040;-74
2021/12/02 12:11:24;;;;;;;6.28;1.50;;;8.50;99.90;;;;;;5027243;28;20464;-74
2021/12/02 12:13:54;;;;;;;8.52;1.90;;;8.30;99.90;;;;;;5028976;28;20033;-74
2021/12/02 12:16:33;;;;;;;6.80;2.28;;;8.10;99.90;;;;;;5029678;28;20022;-74
2021/12/02 12:19:17;;;;;;;8.45;2.20;;;8.00;99.90;;;;;;5028674;28;20029;-74
2021/12/02 12:21:49;;;;;;;15.60;2.38;;;7.90;99.90;;;;;;5028593;28;20029;-74
2021/12/02 12:24:15;;;;;;;12.13;2.45;;;8.10;99.90;;;;;;5028456;28;20021;-74
2021/12/02 12:26:46;;;;;;;7.40;2.20;;;8.00;99.90;;;;;;5029102;28;20388;-74
2021/12/02 12:29:14;;;;;;;6.22;1.92;;;8.00;99.90;;;;;;5028884;28;20036;-74
2021/12/02 12:31:56;;;;;;;15.30;3.15;;;7.80;99.90;;;;;;5030187;28;20025;-74
2021/12/02 12:34:29;;;;;;;7.05;2.10;;;7.80;99.90;;;;;;5030058;28;20109;-74
2021/12/02 12:36:56;;;;;;;12.38;2.75;;;7.60;99.90;;;;;;5028440;28;20044;-74
2021/12/02 12:39:24;;;;;;;6.47;1.73;;;8.10;99.90;;;;;;5028714;28;20029;-74
2021/12/02 12:42:10;;;;;;;4.55;2.17;;;8.40;99.90;;;;;;5029023;28;20112;-74
2021/12/02 12:44:46;;;;;;;10.00;1.98;;;8.40;99.90;;;;;;5015369;28;20133;-74
2021/12/02 12:47:12;;;;;;;8.18;2.45;;;8.20;99.90;;;;;;5010998;28;20068;-74
2021/12/02 12:49:38;;;;;;;7.30;2.42;;;8.00;99.90;;;;;;5030029;28;20041;-74
2021/12/02 12:52:18;;;;;;;9.07;2.35;;;8.20;99.90;;;;;;5009471;28;20029;-74
2021/12/02 12:55:18;;;;;;;4.63;2.20;;;8.50;99.90;;;;;;5028718;28;20116;-74
2021/12/02 12:58:13;;;;;;;10.07;2.30;;;8.30;99.90;;;;;;5028010;28;20033;-74
2021/12/02 13:01:01;;;;;;;13.25;3.47;;;8.10;99.90;;;;;;5010801;28;20106;-74
2021/12/02 13:03:45;;;;;;;4.40;2.25;;;8.10;99.90;;;;;;5027704;28;20017;-74
2021/12/02 13:06:23;;;;;;;10.05;4.40;;;8.00;99.90;;;;;;5010514;28;20033;-74
2021/12/02 13:08:53;;;;;;;5.45;2.75;;;7.90;99.90;;;;;;5028285;28;20094;-74
2021/12/02 13:11:25;;;;;;;6.95;2.53;;;7.90;99.90;;;;;;5028661;28;20116;-74
2021/12/02 13:13:53;;;;;;;5.30;2.38;;;7.80;99.90;;;;;;5011238;28;20026;-74
2021/12/02 13:16:20;;;;;;;7.03;2.28;;;7.80;99.90;;;;;;5028845;28;20029;-74
2021/12/02 13:18:59;;;;;;;15.63;3.10;;;7.80;99.90;;;;;;5010733;28;20524;-74
2021/12/02 13:21:34;;;;;;;8.57;2.25;;;7.90;99.90;;;;;;5028360;28;20082;-74